Time;durP1;ratioP1;P1;durP2;ratioP2;P2;SDS_P1;SDS_P2;PMS_P1;PMS_P2;Temp;Humidity;BMP_temperature;BMP_pressure;BME280_temperature;BME280_humidity;BME280_pressure;Samples;Min_cycle;Max_cycle;Signal;HPM_P1;HPM_P2
2022/10/24 00:00:16;;;;;;;10.07;3.20;;;;;;;13.58;100.00;100029.06;5036035;28;20125;-49
2022/10/24 00:02:42;;;;;;;5.72;2.90;;;;;;;13.52;100.00;100022.31;5035268;28;20056;-54
2022/10/24 00:05:07;;;;;;;6.28;3.10;;;;;;;13.48;100.00;100009.38;5033372;28;20025;-52
2022/10/24 00:07:33;;;;;;;4.57;3.08;;;;;;;13.56;100.00;100019.50;5033826;28;20419;-50
2022/10/24 00:09:58;;;;;;;8.98;4.07;;;;;;;13.58;100.00;100021.13;5044346;28;20037;-52
2022/10/24 00:12:23;;;;;;;7.13;3.17;;;;;;;13.27;100.00;99973.59;5054805;28;20037;-53
2022/10/24 00:14:49;;;;;;;10.68;3.70;;;;;;;13.37;100.00;99994.13;5054867;28;20029;-49
2022/10/24 00:17:14;;;;;;;10.57;3.65;;;;;;;13.50;100.00;100016.28;5051884;28;20178;-51
2022/10/24 00:19:40;;;;;;;6.65;3.72;;;;;;;13.59;100.00;100011.41;5054000;28;20040;-51
2022/10/24 00:22:05;;;;;;;8.88;3.60;;;;;;;13.70;100.00;100007.19;5045823;28;20049;-49
2022/10/24 00:24:30;;;;;;;6.38;3.50;;;;;;;13.20;100.00;99941.38;5041992;28;20116;-51
2022/10/24 00:26:56;;;;;;;9.20;4.05;;;;;;;13.80;100.00;100010.16;5054667;28;20072;-52
2022/10/24 00:29:21;;;;;;;5.20;3.83;;;;;;;13.86;100.00;100000.09;5051974;28;20037;-50
2022/10/24 00:31:47;;;;;;;11.40;4.10;;;;;;;13.75;100.00;99978.69;5036852;28;20040;-52
2022/10/24 00:34:13;;;;;;;10.60;3.92;;;;;;;14.01;100.00;100000.94;5048776;28;20390;-51
2022/10/24 00:36:38;;;;;;;12.02;3.90;;;;;;;14.05;100.00;99998.03;5042505;28;20044;-52
2022/10/24 00:39:04;;;;;;;7.47;3.60;;;;;;;14.17;100.00;100001.75;5049358;28;20033;-51
2022/10/24 00:41:38;;;;;;;11.75;3.78;;;;;;;14.25;100.00;100002.13;5038344;28;20040;-51
2022/10/24 00:44:23;;;;;;;9.52;3.83;;;;;;;14.32;100.00;99997.31;5033995;28;20285;-54
2022/10/24 00:47:21;;;;;;;5.13;2.70;;;;;;;14.38;100.00;99989.88;5035490;28;20384;-50
2022/10/24 00:49:59;;;;;;;7.82;3.13;;;;;;;14.38;100.00;99989.88;5017255;28;20136;-52
2022/10/24 00:52:27;;;;;;;9.88;3.45;;;;;;;14.41;100.00;99992.34;5062372;28;20427;-50
2022/10/24 00:54:54;;;;;;;6.18;2.72;;;;;;;14.45;100.00;99999.13;5052606;28;20040;-53
2022/10/24 00:57:37;;;;;;;7.53;2.50;;;;;;;14.52;100.00;99992.53;5032670;28;20484;-52
2022/10/24 01:00:14;;;;;;;9.30;3.05;;;;;;;14.57;100.00;99986.94;5052755;28;20492;-55
2022/10/24 01:02:40;;;;;;;6.32;2.55;;;;;;;14.61;100.00;99997.25;5050486;28;20087;-52
2022/10/24 01:05:06;;;;;;;5.22;2.55;;;;;;;14.61;100.00;99976.06;5033766;28;20038;-53
2022/10/24 01:07:50;;;;;;;8.95;2.72;;;;;;;14.35;100.00;99923.88;5033448;28;20047;-52
2022/10/24 01:10:33;;;;;;;5.25;2.22;;;;;;;14.75;100.00;99980.50;5049485;28;20083;-50
2022/10/24 01:13:49;;;;;;;5.75;2.30;;;;;;;14.81;100.00;99982.75;5033596;28;20119;-54
2022/10/24 01:16:18;;;;;;;7.45;2.13;;;;;;;14.88;100.00;99978.78;4981932;28;20026;-51
2022/10/24 01:18:52;;;;;;;4.75;2.40;;;;;;;14.95;100.00;99976.56;5030210;28;20409;-53
2022/10/24 01:21:24;;;;;;;5.35;2.17;;;;;;;14.94;100.00;99989.00;5046687;28;20044;-55
2022/10/24 01:24:28;;;;;;;8.43;2.10;;;;;;;15.01;100.00;99992.09;5053593;28;20396;-53
2022/10/24 01:27:09;;;;;;;8.23;2.03;;;;;;;15.06;100.00;99976.75;5036602;28;20045;-53
2022/10/24 01:29:45;;;;;;;7.97;2.38;;;;;;;14.76;100.00;99925.72;5050135;28;20057;-49
2022/10/24 01:32:18;;;;;;;7.93;2.20;;;;;;;14.84;100.00;99929.56;5033419;28;20393;-51
2022/10/24 01:34:47;;;;;;;7.50;2.40;;;;;;;14.85;100.00;99919.84;5031528;28;20144;-54
2022/10/24 01:37:17;;;;;;;7.32;2.33;;;;;;;14.80;100.00;99911.34;5033131;28;20037;-51
2022/10/24 01:39:47;;;;;;;6.03;2.33;;;;;;;15.28;100.00;99977.06;5036249;28;20047;-54
2022/10/24 01:42:15;;;;;;;4.82;2.05;;;;;;;15.31;100.00;99973.34;5041939;28;20294;-54
2022/10/24 01:44:43;;;;;;;5.65;1.83;;;;;;;15.31;100.00;99955.66;5068371;28;20384;-51
2022/10/24 01:47:18;;;;;;;6.72;1.88;;;;;;;15.27;100.00;99967.41;5057378;28;20087;-53
2022/10/24 01:49:50;;;;;;;5.85;1.75;;;;;;;14.88;100.00;99930.25;5019030;28;20082;-54
2022/10/24 01:52:16;;;;;;;5.65;1.90;;;;;;;15.04;100.00;99976.84;5040718;28;20028;-49
2022/10/24 01:54:42;;;;;;;5.18;1.52;;;;;;;14.95;100.00;99960.69;5066468;28;20175;-53
2022/10/24 01:57:08;;;;;;;6.60;1.80;;;;;;;14.88;100.00;99970.84;5031738;28;20029;-53
2022/10/24 01:59:33;;;;;;;6.28;1.90;;;;;;;14.84;100.00;99958.72;5034845;28;20041;-49
2022/10/24 02:02:20;;;;;;;5.57;1.55;;;;;;;14.85;100.00;99978.13;5033160;28;20052;-54
2022/10/24 02:04:53;;;;;;;8.27;2.15;;;;;;;14.50;100.00;99922.09;5032644;28;20042;-54
2022/10/24 02:07:20;;;;;;;6.55;1.92;;;;;;;14.45;100.00;99917.06;5050603;28;20036;-53
2022/10/24 02:09:49;;;;;;;6.60;1.60;;;;;;;14.49;100.00;99931.81;5047384;28;20026;-51
2022/10/24 02:12:16;;;;;;;3.40;1.60;;;;;;;14.39;100.00;99900.72;5034523;28;20029;-53
2022/10/24 02:14:49;;;;;;;6.07;1.70;;;;;;;14.80;100.00;99964.31;5015102;28;20037;-53
2022/10/24 02:17:15;;;;;;;2.30;1.20;;;;;;;14.42;100.00;99909.31;5031468;28;20087;-54
2022/10/24 02:19:41;;;;;;;4.55;1.70;;;;;;;14.81;100.00;99964.22;5033810;28;20041;-53
2022/10/24 02:22:21;;;;;;;8.00;1.80;;;;;;;15.02;100.00;99985.84;5034873;28;20039;-54
2022/10/24 02:24:52;;;;;;;4.63;1.60;;;;;;;15.04;100.00;99983.94;5062790;28;20041;-50
2022/10/24 02:27:30;;;;;;;4.25;1.65;;;;;;;15.03;100.00;99976.97;5048061;28;20532;-50
2022/10/24 02:30:06;;;;;;;7.35;1.67;;;;;;;14.99;100.00;99992.19;5023457;28;20028;-52
2022/10/24 02:32:38;;;;;;;2.42;1.20;;;;;;;14.96;100.00;99978.28;5049587;28;20116;-58
2022/10/24 02:35:04;;;;;;;3.35;1.25;;;;;;;14.65;100.00;99910.53;5050385;28;20048;-50
2022/10/24 02:37:31;;;;;;;5.15;1.33;;;;;;;15.16;100.00;99973.41;5050321;28;20398;-48
2022/10/24 02:39:58;;;;;;;2.92;1.50;;;;;;;15.20;100.00;99958.16;5046238;28;20117;-51
2022/10/24 02:42:25;;;;;;;6.57;1.63;;;;;;;15.21;100.00;99960.69;5045199;28;20037;-53
2022/10/24 02:44:51;;;;;;;3.63;1.52;;;;;;;14.94;100.00;99924.53;5037843;28;20041;-53
2022/10/24 02:47:18;;;;;;;5.90;1.60;;;;;;;15.12;100.00;99979.00;5050603;28;20044;-50
2022/10/24 02:49:43;;;;;;;6.22;1.30;;;;;;;15.09;100.00;99976.56;5048409;28;20037;-52
2022/10/24 02:52:09;;;;;;;3.88;1.50;;;;;;;14.67;100.00;99908.63;5014337;28;20041;-51
2022/10/24 02:54:34;;;;;;;7.05;1.60;;;;;;;14.68;100.00;99912.13;5031966;28;20481;-48
2022/10/24 02:57:01;;;;;;;5.05;1.85;;;;;;;15.12;100.00;99990.44;5054286;28;20067;-50
2022/10/24 02:59:27;;;;;;;4.88;1.42;;;;;;;14.81;100.00;99918.31;5050461;28;20036;-52
2022/10/24 03:01:52;;;;;;;4.35;1.70;;;;;;;15.13;100.00;99986.00;5048187;28;20037;-53
2022/10/24 03:04:17;;;;;;;6.00;1.70;;;;;;;14.73;100.00;99905.59;5050872;28;20041;-52
2022/10/24 03:06:43;;;;;;;6.07;1.67;;;;;;;15.07;100.00;99979.31;5054922;28;20040;-54
2022/10/24 03:09:08;;;;;;;4.45;1.17;;;;;;;14.66;100.00;99917.50;5055948;28;20049;-51
2022/10/24 03:11:34;;;;;;;7.35;1.73;;;;;;;14.96;100.00;99965.03;5054424;28;20120;-55
2022/10/24 03:13:59;;;;;;;4.30;1.17;;;;;;;15.01;100.00;99963.78;5040787;28;20120;-54
2022/10/24 03:16:25;;;;;;;4.53;1.67;;;;;;;14.68;100.00;99905.03;5046105;28;20033;-51
2022/10/24 03:18:50;;;;;;;7.57;1.80;;;;;;;15.01;100.00;99963.78;5055295;28;20392;-53
2022/10/24 03:21:15;;;;;;;5.68;1.50;;;;;;;14.68;100.00;99914.78;5048836;28;20174;-53
2022/10/24 03:23:41;;;;;;;8.23;1.63;;;;;;;14.93;100.00;99957.28;5054836;28;20041;-53
2022/10/24 03:26:06;;;;;;;8.02;1.50;;;;;;;14.57;100.00;99905.69;5046899;28;20069;-57
2022/10/24 03:28:31;;;;;;;5.47;1.55;;;;;;;14.84;100.00;99950.78;5035550;28;20033;-49
2022/10/24 03:30:56;;;;;;;4.43;1.38;;;;;;;14.84;100.00;99957.88;5035568;28;20382;-53
2022/10/24 03:33:22;;;;;;;7.50;1.48;;;;;;;14.75;100.00;99945.19;5034711;28;20064;-51
2022/10/24 03:35:52;;;;;;;7.70;1.58;;;;;;;14.54;100.00;99905.88;5040126;28;20052;-55
2022/10/24 03:38:18;;;;;;;5.55;1.70;;;;;;;14.53;100.00;99908.66;5054321;28;20121;-53
2022/10/24 03:40:43;;;;;;;7.75;1.65;;;;;;;14.77;100.00;99959.22;5037404;28;20433;-53
2022/10/24 03:43:08;;;;;;;12.80;2.00;;;;;;;14.86;100.00;99972.72;5055183;28;20045;-54
2022/10/24 03:45:34;;;;;;;10.00;2.22;;;;;;;14.96;100.00;99971.19;5051423;28;20061;-51
2022/10/24 03:47:59;;;;;;;5.65;1.25;;;;;;;15.06;100.00;99987.38;5035293;28;20094;-55
2022/10/24 03:50:24;;;;;;;8.73;1.88;;;;;;;14.83;100.00;99932.31;5035077;28;20128;-52
2022/10/24 03:52:50;;;;;;;4.80;1.05;;;;;;;14.92;100.00;99937.88;5035352;28;20034;-55
2022/10/24 03:55:15;;;;;;;5.55;1.35;;;;;;;15.25;100.00;99989.66;5050521;28;20481;-53
2022/10/24 03:57:41;;;;;;;3.80;1.17;;;;;;;15.35;100.00;99969.56;5035205;28;20500;-56
2022/10/24 04:00:06;;;;;;;7.07;1.63;;;;;;;15.38;100.00;99975.50;5033988;28;20049;-52
2022/10/24 04:02:32;;;;;;;5.00;1.60;;;;;;;15.39;100.00;99976.34;5049869;28;20033;-51
2022/10/24 04:04:57;;;;;;;5.07;1.20;;;;;;;15.44;100.00;99963.66;5049971;28;20037;-55
2022/10/24 04:07:23;;;;;;;8.75;1.80;;;;;;;15.52;100.00;99977.28;5034767;28;20112;-54
2022/10/24 04:09:48;;;;;;;6.10;1.77;;;;;;;14.59;100.00;99831.47;5034890;28;20037;-55
2022/10/24 04:12:14;;;;;;;4.03;1.33;;;;;;;15.45;100.00;99968.00;5050345;28;20044;-54
2022/10/24 04:14:39;;;;;;;5.43;1.25;;;;;;;15.19;100.00;99928.16;5043742;28;20037;-56
2022/10/24 04:17:05;;;;;;;9.55;2.00;;;;;;;15.13;100.00;99902.03;5034449;28;20125;-49
2022/10/24 04:19:30;;;;;;;5.47;1.67;;;;;;;15.52;100.00;99972.84;5035613;28;20033;-52
2022/10/24 04:21:55;;;;;;;4.78;1.50;;;;;;;15.28;100.00;99931.13;5050340;28;20373;-49
2022/10/24 04:24:21;;;;;;;6.15;1.95;;;;;;;15.51;100.00;99967.63;5034580;28;20103;-51
2022/10/24 04:26:46;;;;;;;7.57;1.50;;;;;;;15.16;100.00;99919.53;5049984;28;20048;-55
2022/10/24 04:29:11;;;;;;;6.93;1.38;;;;;;;15.41;100.00;99956.72;5052331;28;20029;-49
2022/10/24 04:31:37;;;;;;;4.50;1.73;;;;;;;15.38;100.00;99954.28;5054328;28;20075;-50
2022/10/24 04:34:04;;;;;;;4.32;1.00;;;;;;;15.15;100.00;99915.19;5044702;28;20056;-52
2022/10/24 04:36:29;;;;;;;5.93;1.40;;;;;;;15.45;100.00;99963.53;5049913;28;20507;-49
2022/10/24 04:38:55;;;;;;;4.72;1.58;;;;;;;15.45;100.00;99958.25;5036547;28;20239;-48
2022/10/24 04:41:20;;;;;;;11.88;1.95;;;;;;;15.40;100.00;99951.53;5048495;28;20539;-50
2022/10/24 04:43:45;;;;;;;7.18;2.03;;;;;;;15.54;100.00;99948.84;5035418;28;20044;-49
2022/10/24 04:46:11;;;;;;;6.90;1.80;;;;;;;15.47;100.00;99948.41;5046776;28;20369;-51
2022/10/24 04:48:36;;;;;;;7.15;1.60;;;;;;;15.53;100.00;99955.94;5053767;28;20037;-50
2022/10/24 04:51:01;;;;;;;6.28;1.70;;;;;;;15.41;100.00;99946.13;5050965;28;20060;-48
2022/10/24 04:53:27;;;;;;;11.90;2.38;;;;;;;15.57;100.00;99932.75;5034473;28;20045;-48
2022/10/24 04:55:52;;;;;;;5.50;1.38;;;;;;;15.39;100.00;99910.91;5045814;28;20071;-51
2022/10/24 04:58:17;;;;;;;9.50;1.77;;;;;;;15.65;100.00;99949.84;5033872;28;20041;-52
2022/10/24 05:00:45;;;;;;;6.25;1.27;;;;;;;15.49;100.00;99929.75;5036492;28;20037;-51
2022/10/24 05:03:11;;;;;;;6.82;1.83;;;;;;;15.51;100.00;99922.53;5052546;28;20037;-52
2022/10/24 05:05:36;;;;;;;7.25;1.58;;;;;;;15.54;100.00;99924.97;5052832;28;20040;-50
2022/10/24 05:08:02;;;;;;;5.15;1.58;;;;;;;15.53;100.00;99937.38;5053408;28;20029;-51
2022/10/24 05:10:27;;;;;;;6.60;1.42;;;;;;;15.34;100.00;99893.59;5053621;28;20029;-52
2022/10/24 05:12:52;;;;;;;7.38;1.52;;;;;;;15.57;100.00;99936.25;5036081;28;20088;-52
2022/10/24 05:15:18;;;;;;;7.95;1.30;;;;;;;15.28;100.00;99894.03;5034830;28;20056;-55
2022/10/24 05:17:43;;;;;;;5.70;1.95;;;;;;;15.60;100.00;99948.44;5033701;28;20073;-49
2022/10/24 05:20:09;;;;;;;7.88;2.25;;;;;;;15.23;100.00;99899.63;5043302;28;20040;-50
2022/10/24 05:22:34;;;;;;;5.20;1.60;;;;;;;15.50;100.00;99945.56;5041308;28;20038;-48
2022/10/24 05:25:00;;;;;;;6.85;1.85;;;;;;;15.31;100.00;99922.97;5033167;28;20037;-49
2022/10/24 05:27:25;;;;;;;5.50;1.50;;;;;;;15.37;100.00;99960.56;5034436;28;20039;-49
2022/10/24 05:29:51;;;;;;;5.70;1.42;;;;;;;15.09;100.00;99907.66;5031632;28;20048;-50
2022/10/24 05:32:17;;;;;;;4.72;1.42;;;;;;;15.05;100.00;99893.75;5035898;28;20040;-51
2022/10/24 05:34:42;;;;;;;6.95;1.73;;;;;;;15.39;100.00;99966.59;5052746;28;20053;-50
2022/10/24 05:37:08;;;;;;;5.95;1.33;;;;;;;15.35;100.00;99962.47;5036277;28;20712;-53
2022/10/24 05:39:33;;;;;;;5.65;1.60;;;;;;;15.33;100.00;99955.53;5033569;28;20075;-48
2022/10/24 05:41:58;;;;;;;5.63;1.70;;;;;;;15.32;100.00;99953.84;5039735;28;20044;-48
2022/10/24 05:44:24;;;;;;;7.10;1.50;;;;;;;14.97;100.00;99892.56;5052568;28;20045;-48
2022/10/24 05:46:49;;;;;;;10.20;1.92;;;;;;;15.18;100.00;99941.47;5039504;28;20059;-49
2022/10/24 05:49:14;;;;;;;11.65;1.90;;;;;;;14.82;100.00;99885.59;5033405;28;20098;-53
2022/10/24 05:51:40;;;;;;;7.78;1.60;;;;;;;15.24;100.00;99951.69;5035783;28;20454;-52
2022/10/24 05:54:05;;;;;;;7.95;1.75;;;;;;;15.32;100.00;99957.38;5053233;28;20037;-50
2022/10/24 05:56:30;;;;;;;7.88;1.60;;;;;;;14.98;100.00;99908.34;5047804;28;20037;-51
2022/10/24 05:58:56;;;;;;;8.50;1.60;;;;;;;15.35;100.00;99953.66;5051184;28;20029;-50
2022/10/24 06:01:22;;;;;;;4.40;1.27;;;;;;;15.08;100.00;99906.78;5049644;28;20033;-51
2022/10/24 06:03:47;;;;;;;8.10;1.40;;;;;;;15.40;100.00;99959.50;5052314;28;20362;-49
2022/10/24 06:06:12;;;;;;;8.52;1.83;;;;;;;15.41;100.00;99951.44;5052581;28;20029;-51
2022/10/24 06:08:38;;;;;;;6.32;1.65;;;;;;;15.18;100.00;99913.19;5051846;28;20040;-53
2022/10/24 06:11:03;;;;;;;7.40;1.92;;;;;;;15.18;100.00;99922.94;5050659;28;20091;-52
2022/10/24 06:13:29;;;;;;;4.72;1.33;;;;;;;15.40;100.00;99940.94;5052314;28;20178;-52
2022/10/24 06:15:54;;;;;;;8.27;1.65;;;;;;;15.47;100.00;99968.81;5049717;28;20122;-53
2022/10/24 06:18:20;;;;;;;8.07;1.83;;;;;;;15.50;100.00;99979.19;5049960;28;20037;-52
2022/10/24 06:20:45;;;;;;;6.63;1.50;;;;;;;15.17;100.00;99922.09;5049358;28;20050;-52
2022/10/24 06:23:10;;;;;;;7.35;1.88;;;;;;;15.55;100.00;99970.00;5051346;28;20062;-50
2022/10/24 06:25:36;;;;;;;9.55;2.05;;;;;;;15.60;100.00;99999.72;5040926;28;20040;-50
2022/10/24 06:28:02;;;;;;;6.00;2.20;;;;;;;15.58;100.00;100012.22;5052466;28;20052;-50
2022/10/24 06:30:27;;;;;;;9.50;2.05;;;;;;;15.56;100.00;99994.69;5067641;28;20037;-50
2022/10/24 06:32:52;;;;;;;6.78;1.73;;;;;;;15.46;100.00;99991.78;5051783;28;20037;-51
2022/10/24 06:35:18;;;;;;;7.60;1.65;;;;;;;15.37;100.00;100018.91;5050949;28;20045;-52
2022/10/24 06:37:43;;;;;;;7.90;1.75;;;;;;;15.06;100.00;100027.13;5051345;28;20029;-52
2022/10/24 06:40:09;;;;;;;5.65;1.50;;;;;;;14.80;100.00;100006.72;5050258;28;20036;-53
2022/10/24 06:42:34;;;;;;;6.25;1.52;;;;;;;14.65;100.00;99995.28;5038363;28;20463;-53
2022/10/24 06:45:00;;;;;;;6.28;1.55;;;;;;;14.26;100.00;99956.19;5045397;28;20037;-51
2022/10/24 06:47:25;;;;;;;6.47;2.22;;;;;;;14.37;100.00;99974.06;5031789;28;20064;-48
2022/10/24 06:49:50;;;;;;;6.97;2.10;;;;;;;14.58;100.00;100010.69;5032338;28;20492;-53
2022/10/24 06:52:16;;;;;;;5.57;1.50;;;;;;;14.71;100.00;100020.53;5032990;28;20485;-50
2022/10/24 06:54:42;;;;;;;7.65;1.42;;;;;;;14.80;100.00;100023.44;5030811;28;20046;-50
2022/10/24 06:57:08;;;;;;;6.53;1.60;;;;;;;14.91;100.00;100030.72;5030606;28;20107;-51
2022/10/24 06:59:33;;;;;;;10.98;1.83;;;;;;;14.76;100.00;99989.31;5031856;28;20473;-49
2022/10/24 07:01:58;;;;;;;7.63;2.15;;;;;;;15.11;100.00;100036.47;5033940;28;20858;-53
2022/10/24 07:04:24;;;;;;;9.77;1.70;;;;;;;14.83;100.00;99987.94;5032040;28;20087;-51
2022/10/24 07:06:49;;;;;;;5.88;1.83;;;;;;;14.88;100.00;99997.34;5043474;28;20038;-55
2022/10/24 07:09:16;;;;;;;7.78;1.20;;;;;;;15.01;100.00;100024.75;5054086;28;20128;-52
2022/10/24 07:11:42;;;;;;;5.28;1.20;;;;;;;14.94;100.00;100012.00;5045514;28;20055;-50
2022/10/24 07:14:08;;;;;;;6.00;1.50;;;;;;;15.37;100.00;100093.16;5033153;28;20033;-50
2022/10/24 07:16:33;;;;;;;5.95;1.92;;;;;;;15.35;100.00;100083.59;5037446;28;20037;-51
2022/10/24 07:18:59;;;;;;;3.08;1.20;;;;;;;15.50;100.00;100090.59;5031910;28;20045;-48
2022/10/24 07:21:28;;;;;;;5.30;1.55;;;;;;;15.21;100.00;100034.06;5043865;28;20044;-50
2022/10/24 07:23:54;;;;;;;8.88;1.80;;;;;;;15.49;100.00;100129.53;5051427;28;20037;-51
2022/10/24 07:26:20;;;;;;;7.72;1.70;;;;;;;15.37;100.00;100092.28;5040065;28;20048;-52
2022/10/24 07:28:46;;;;;;;2.63;1.00;;;;;;;15.16;100.00;100055.59;5051232;28;20040;-49
2022/10/24 07:31:15;;;;;;;5.15;2.00;;;;;;;15.51;100.00;100100.25;5041176;28;20057;-54
2022/10/24 07:33:41;;;;;;;3.17;1.15;;;;;;;15.45;100.00;100114.72;5045831;28;20563;-51
2022/10/24 07:36:07;;;;;;;6.28;1.40;;;;;;;15.14;100.00;100070.75;5046115;28;20034;-53
2022/10/24 07:38:32;;;;;;;8.70;1.40;;;;;;;15.48;100.00;100125.16;5046940;28;20025;-51
2022/10/24 07:41:02;;;;;;;9.10;1.98;;;;;;;15.48;100.00;100126.97;5045598;28;20444;-52
2022/10/24 07:43:27;;;;;;;6.85;1.50;;;;;;;15.13;100.00;100065.53;5051016;28;20094;-51
2022/10/24 07:45:53;;;;;;;7.25;1.63;;;;;;;15.53;100.00;100144.28;5042157;28;20041;-54
2022/10/24 07:48:18;;;;;;;5.50;1.20;;;;;;;15.26;100.00;100098.28;5033712;28;20129;-52
2022/10/24 07:50:45;;;;;;;4.90;1.30;;;;;;;15.57;100.00;100144.94;5042231;28;20112;-51
2022/10/24 07:53:12;;;;;;;4.47;1.48;;;;;;;15.34;100.00;100100.44;5055081;28;20060;-52
2022/10/24 07:55:41;;;;;;;6.15;1.67;;;;;;;15.64;100.00;100159.53;5044351;28;20048;-56
2022/10/24 07:58:07;;;;;;;5.30;1.75;;;;;;;15.58;100.00;100158.13;5033716;28;20068;-52
2022/10/24 08:00:33;;;;;;;7.32;1.95;;;;;;;15.59;100.00;100158.94;5051601;28;20033;-52
2022/10/24 08:02:58;;;;;;;8.60;1.98;;;;;;;15.36;100.00;100123.25;5053691;28;20036;-53
2022/10/24 08:05:24;;;;;;;6.15;1.52;;;;;;;15.62;100.00;100140.19;5054334;28;20495;-55
2022/10/24 08:07:49;;;;;;;5.50;1.70;;;;;;;15.81;100.00;100175.22;5054618;28;20091;-53
2022/10/24 08:10:15;;;;;;;5.28;1.60;;;;;;;15.79;100.00;100189.53;5053805;28;20048;-49
2022/10/24 08:12:41;;;;;;;4.82;1.02;;;;;;;15.72;100.00;100171.34;5035439;28;20037;-51
2022/10/24 08:15:06;;;;;;;7.50;1.67;;;;;;;15.93;100.00;100197.47;5036276;28;20033;-53
2022/10/24 08:17:32;;;;;;;5.90;1.48;;;;;;;15.69;100.00;100173.34;5049877;28;20045;-51
2022/10/24 08:19:57;;;;;;;5.20;1.25;;;;;;;15.61;100.00;100157.94;5046794;28;20041;-52
2022/10/24 08:22:22;;;;;;;6.72;2.03;;;;;;;15.86;100.00;100193.50;5057469;28;20033;-51
2022/10/24 08:24:48;;;;;;;6.00;1.60;;;;;;;15.54;100.00;100177.81;5034872;28;20037;-55
2022/10/24 08:27:13;;;;;;;5.88;1.45;;;;;;;15.61;100.00;100203.03;5050350;28;20112;-48
2022/10/24 08:29:38;;;;;;;8.55;1.90;;;;;;;15.23;100.00;100148.00;5051958;28;20610;-51
2022/10/24 08:32:05;;;;;;;7.18;2.45;;;;;;;15.39;100.00;100189.34;5036142;28;20029;-51
2022/10/24 08:34:31;;;;;;;7.13;1.60;;;;;;;15.43;100.00;100208.59;5045016;28;20566;-49
2022/10/24 08:36:57;;;;;;;8.45;2.05;;;;;;;15.33;100.00;100187.09;5036977;28;20037;-55
2022/10/24 08:39:22;;;;;;;6.18;1.50;;;;;;;15.31;100.00;100206.69;5049710;28;20033;-50
2022/10/24 08:41:50;;;;;;;6.65;1.52;;;;;;;15.20;100.00;100213.53;5043998;28;20060;-54
2022/10/24 08:44:20;;;;;;;7.53;2.17;;;;;;;15.10;100.00;100222.09;5053429;28;20060;-51
2022/10/24 08:46:47;;;;;;;7.30;1.30;;;;;;;15.04;100.00;100215.38;5034832;28;20033;-52
2022/10/24 08:49:26;;;;;;;6.53;1.70;;;;;;;14.73;100.00;100175.78;5051008;28;20041;-50
2022/10/24 08:52:14;;;;;;;3.95;1.35;;;;;;;14.94;100.00;100201.00;5053933;28;20423;-55
2022/10/24 08:54:41;;;;;;;5.75;1.50;;;;;;;14.81;100.00;100170.00;5059678;28;20091;-54
2022/10/24 08:57:14;;;;;;;7.18;1.95;;;;;;;15.11;100.00;100216.72;5033907;28;20068;-55
2022/10/24 08:59:39;;;;;;;5.18;1.85;;;;;;;14.97;100.00;100171.63;5062428;28;20037;-48
2022/10/24 09:02:16;;;;;;;6.93;1.50;;;;;;;15.27;100.00;100234.31;5047776;28;20444;-50
2022/10/24 09:04:55;;;;;;;14.10;1.55;;;;;;;15.29;100.00;100221.84;5062379;28;20029;-53
2022/10/24 09:07:21;;;;;;;5.57;1.80;;;;;;;15.32;100.00;100249.03;5034119;28;20025;-50
2022/10/24 09:09:49;;;;;;;9.82;1.73;;;;;;;15.26;100.00;100219.38;5046140;28;20067;-53
2022/10/24 09:12:18;;;;;;;6.88;1.70;;;;;;;15.45;100.00;100265.03;5052350;28;20032;-52
2022/10/24 09:14:46;;;;;;;4.22;1.73;;;;;;;15.13;100.00;100193.63;5069409;28;20082;-54
2022/10/24 09:17:23;;;;;;;7.35;2.13;;;;;;;15.61;100.00;100256.09;5052487;28;20040;-54
2022/10/24 09:20:13;;;;;;;7.75;1.92;;;;;;;15.83;100.00;100266.19;5053540;28;20122;-53
2022/10/24 09:22:38;;;;;;;6.47;1.45;;;;;;;15.88;100.00;100245.50;5053561;28;20036;-50
2022/10/24 09:25:11;;;;;;;5.65;1.48;;;;;;;16.28;100.00;100265.94;5052446;28;20052;-50
2022/10/24 09:27:38;;;;;;;7.53;2.00;;;;;;;16.45;100.00;100224.97;5069038;28;20032;-52
2022/10/24 09:30:06;;;;;;;5.70;1.77;;;;;;;16.53;100.00;100238.59;5068730;28;20041;-52
2022/10/24 09:32:33;;;;;;;5.57;1.30;;;;;;;16.71;100.00;100293.22;5039043;28;20033;-49
2022/10/24 09:35:00;;;;;;;6.38;2.00;;;;;;;16.70;100.00;100298.63;5049816;28;20048;-52
2022/10/24 09:37:47;;;;;;;5.95;1.80;;;;;;;16.68;100.00;100288.09;5050166;28;20350;-48
2022/10/24 09:40:23;;;;;;;5.60;1.75;;;;;;;16.38;100.00;100236.94;5051502;28;20032;-54
2022/10/24 09:42:55;;;;;;;6.80;2.17;;;;;;;16.34;100.00;100238.94;5052679;28;20033;-52
2022/10/24 09:45:26;;;;;;;8.88;2.03;;;;;;;16.75;100.00;100308.00;5040971;28;20055;-49
2022/10/24 09:47:59;;;;;;;;;;;;;;;16.74;100.00;100314.28;5040642;28;20025;-54
2022/10/24 09:50:25;;;;;;;4.00;1.55;;;;;;;16.65;100.00;100272.38;5034038;28;19928;-49
2022/10/24 09:52:54;;;;;;;8.30;1.73;;;;;;;16.61;100.00;100275.31;5055859;28;20025;-50
2022/10/24 09:55:23;;;;;;;6.35;1.65;;;;;;;16.73;100.00;100271.84;5044764;28;20431;-51
2022/10/24 09:57:52;;;;;;;7.20;1.90;;;;;;;16.94;100.00;100336.03;5056683;28;20037;-52
2022/10/24 10:00:35;;;;;;;6.68;1.38;;;;;;;16.76;100.00;100317.69;5066725;28;20025;-48
2022/10/24 10:03:01;;;;;;;6.22;1.67;;;;;;;16.52;100.00;100302.47;5053104;28;20058;-51
2022/10/24 10:05:41;;;;;;;7.95;1.90;;;;;;;16.93;100.00;100350.28;5046756;28;20029;-48
2022/10/24 10:08:11;;;;;;;6.30;1.80;;;;;;;17.07;100.00;100336.94;5033856;28;20075;-55
2022/10/24 10:10:36;;;;;;;10.27;1.80;;;;;;;17.06;100.00;100321.91;5049540;28;20064;-49
2022/10/24 10:13:06;;;;;;;6.10;1.88;;;;;;;17.27;100.00;100357.72;5029412;28;20522;-47
2022/10/24 10:15:38;;;;;;;5.35;1.63;;;;;;;17.51;100.00;100357.84;5050412;28;20043;-50
2022/10/24 10:18:27;;;;;;;5.90;2.00;;;;;;;17.26;100.00;100362.16;5051262;28;20107;-51
2022/10/24 10:21:17;;;;;;;6.47;1.73;;;;;;;17.12;100.00;100370.22;5041363;28;20064;-50
2022/10/24 10:23:45;;;;;;;8.25;1.73;;;;;;;16.98;100.00;100330.41;5045850;28;20526;-46
2022/10/24 10:26:14;;;;;;;5.80;1.60;;;;;;;17.32;100.00;100344.94;5052102;28;20032;-53
2022/10/24 10:29:02;;;;;;;5.07;1.73;;;;;;;17.63;100.00;100378.34;5052485;28;20029;-50
2022/10/24 10:31:38;;;;;;;7.25;1.83;;;;;;;17.34;100.00;100391.75;5051690;28;20025;-51
2022/10/24 10:34:11;;;;;;;5.20;1.58;;;;;;;16.97;100.00;100411.13;5050201;28;20052;-51
2022/10/24 10:36:47;;;;;;;5.20;2.00;;;;;;;16.87;100.00;100408.19;5059641;28;20026;-46
2022/10/24 10:39:12;;;;;;;5.63;1.90;;;;;;;16.75;100.00;100411.66;5050303;28;20480;-53
2022/10/24 10:42:02;;;;;;;7.28;2.55;;;;;;;16.56;100.00;100424.41;5052338;28;20036;-51
2022/10/24 10:45:11;;;;;;;7.37;2.00;;;;;;;16.44;100.00;100405.69;5047331;28;20029;-53
2022/10/24 10:47:50;;;;;;;11.23;2.35;;;;;;;16.38;100.00;100433.50;5030188;28;20045;-50
2022/10/24 10:50:27;;;;;;;7.22;1.90;;;;;;;16.09;100.00;100371.59;5033652;28;20186;-53
2022/10/24 10:52:56;;;;;;;6.30;1.75;;;;;;;16.43;100.00;100417.28;5066897;28;20021;-52
2022/10/24 10:55:36;;;;;;;5.88;1.45;;;;;;;16.33;100.00;100433.81;5040958;28;20029;-52
2022/10/24 10:58:18;;;;;;;6.95;1.70;;;;;;;16.09;100.00;100390.19;5046750;28;20555;-50
2022/10/24 11:00:58;;;;;;;6.22;1.60;;;;;;;16.31;100.00;100426.88;5049070;28;20521;-50
2022/10/24 11:03:41;;;;;;;6.25;1.35;;;;;;;16.41;100.00;100413.88;5051029;28;20039;-51
2022/10/24 11:06:31;;;;;;;5.38;1.23;;;;;;;16.43;100.00;100428.78;5051071;28;20542;-50
2022/10/24 11:09:02;;;;;;;7.32;1.27;;;;;;;16.57;100.00;100430.59;5050074;28;20025;-49
2022/10/24 11:11:30;;;;;;;4.28;1.27;;;;;;;16.78;100.00;100424.75;5050063;28;20040;-48
2022/10/24 11:14:19;;;;;;;6.05;1.63;;;;;;;16.74;100.00;100433.03;5033007;28;20111;-51
2022/10/24 11:16:44;;;;;;;4.07;1.02;;;;;;;16.70;100.00;100436.81;5018652;28;20064;-52
2022/10/24 11:19:20;;;;;;;6.82;1.85;;;;;;;16.65;100.00;100433.59;5049865;28;20111;-49
2022/10/24 11:21:46;;;;;;;6.20;1.50;;;;;;;16.48;100.00;100429.34;5046951;28;20056;-49
2022/10/24 11:24:15;;;;;;;8.52;2.45;;;;;;;16.34;100.00;100438.16;5047438;28;20099;-51
2022/10/24 11:26:56;;;;;;;4.00;1.55;;;;;;;15.94;100.00;100392.91;5051249;28;20051;-51
2022/10/24 11:29:35;;;;;;;6.53;1.55;;;;;;;16.19;100.00;100449.75;5051794;28;20080;-49